DW0835 Weather Reports


Display with metric or nautical units.
time (UTC)temp
F
wind
direction
speed
MPH
gust
MPH
rain 1hr
in
rain 24hr
in
rain mn
in
humidity
%
barometer
mb
20201001225022 50 0.0 0.0 0.00 0.08 0.08 87 1017.4
20201001224019 49 0.0 0.0 0.00 0.08 0.08 87 1017.2
20201001223035 49 0.0 0.0 0.00 0.08 0.08 87 1017.2
20201001222035 49 0.0 0.0 0.00 0.08 0.08 87 1017.0
20201001221031 49 0.0 0.0 0.00 0.08 0.08 86 1016.9
20201001220029 49 0.0 0.0 0.00 0.08 0.08 86 1016.9
20201001215031 50 0.0 0.0 0.00 0.08 0.08 85 1016.9
20201001214018 50 0.0 0.0 0.00 0.08 0.08 83 1016.7
20201001213022 50 0.0 1.0 0.00 0.08 0.08 80 1016.7
20201001212018 51 0 1.0 4.0 0.00 0.08 0.08 79 1016.7
20201001211029 52 0.0 0.0 0.00 0.08 0.08 81 1016.3
20201001210019 51 0.0 0.0 0.00 0.08 0.08 80 1016.3
20201001205031 51 0.0 1.0 0.00 0.08 0.08 80 1016.1
20201001204029 51 0.0 0.0 0.01 0.08 0.08 83 1015.9
20201001203033 51 0.0 0.0 0.01 0.08 0.08 85 1015.9
20201001202022 51 0.0 0.0 0.01 0.08 0.08 87 1015.9
20201001201029 51 0.0 0.0 0.02 0.08 0.08 87 1015.9
20201001200033 50 0.0 0.0 0.02 0.08 0.08 87 1015.9
20201001195021 50 0.0 0.0 0.02 0.08 0.08 87 1015.9
20201001194021 50 0.0 0.0 0.02 0.07 0.07 87 1015.8
20201001193026 50 0.0 1.0 0.02 0.07 0.07 87 1015.8
20201001192031 50 0.0 0.0 0.02 0.07 0.07 86 1015.7
20201001191021 49 0.0 1.0 0.02 0.06 0.06 86 1015.4
20201001190031 49 0.0 0.0 0.03 0.06 0.06 86 1015.4
20201001185019 49 0.0 0.0 0.03 0.06 0.06 85 1015.4
20201001184019 49 0.0 0.0 0.02 0.05 0.05 84 1015.3
20201001183031 49 0.0 0.0 0.02 0.05 0.05 83 1015.3
20201001182019 50 0.0 2.0 0.02 0.05 0.05 80 1015.4
20201001181030 51 338 1.0 4.0 0.01 0.04 0.04 73 1015.3
20201001180022 56 0 1.0 5.0 0.00 0.03 0.03 70 1015.4
20201001175035 55 0.0 4.0 0.00 0.03 0.03 72 1015.0
20201001174036 55 0.0 2.0 0.00 0.03 0.03 72 1015.0
20201001173030 55 0.0 1.0 0.00 0.03 0.03 74 1015.0
20201001172030 55 0.0 0.0 0.00 0.03 0.03 74 1014.9
20201001171020 55 0.0 2.0 0.00 0.03 0.03 75 1014.8
20201001170030 54 0.0 3.0 0.00 0.05 0.03 78 1014.8
20201001165022 54 0.0 1.0 0.00 0.07 0.03 79 1014.6
20201001164018 53 0.0 1.0 0.00 0.09 0.03 79 1014.4
20201001163021 53 0.0 2.0 0.00 0.11 0.03 82 1014.4
20201001162031 53 0.0 2.0 0.00 0.11 0.03 85 1014.3
20201001161030 52 0.0 4.0 0.00 0.12 0.03 85 1014.3
20201001160019 52 0.0 2.0 0.00 0.13 0.03 89 1014.3
20201001155028 51 0.0 1.0 0.00 0.13 0.03 89 1014.0
20201001154022 50 0.0 0.0 0.01 0.13 0.03 89 1013.8
20201001153026 50 0.0 1.0 0.02 0.13 0.03 89 1013.8
20201001152241 50 0.0 3.0 0.03 0.13 0.03 90 1013.8
20201001151529 49 0.0 2.0 0.03 0.13 0.03 89 1013.6
20201001150030 49 0.0 2.0 0.03 0.13 0.03 89 1013.6
20201001145018 49 0.0 1.0 0.03 0.13 0.03 88 1013.6
20201001144030 49 0.0 2.0 0.02 0.12 0.02 87 1013.4
20201001143018 49 0.0 0.0 0.01 0.11 0.01 87 1013.4
20201001142024 49 0.0 1.0 0.00 0.10 0.00 88 1013.2
20201001141030 49 0.0 0.0 0.00 0.10 0.00 88 1013.1
20201001140023 49 0.0 0.0 0.00 0.10 0.00 88 1013.1
20201001135030 48 0.0 2.0 0.00 0.10 0.00 88 1012.7
20201001134019 48 0.0 2.0 0.00 0.10 0.00 88 1012.7
20201001133030 48 0.0 2.0 0.00 0.10 0.00 87 1012.7
20201001132018 48 0.0 1.0 0.00 0.10 0.00 87 1012.5
20201001131031 48 0.0 1.0 0.00 0.10 0.00 87 1012.4
20201001130029 47 0.0 0.0 0.00 0.10 0.00 86 1012.4
20201001125032 47 0.0 0.0 0.00 0.10 0.00 86 1012.3
20201001124018 47 0.0 1.0 0.00 0.10 0.00 86 1012.2
20201001123032 47 0.0 0.0 0.00 0.10 0.00 86 1012.2
20201001122018 46 0.0 0.0 0.00 0.10 0.00 85 1012.2
20201001121034 46 0.0 0.0 0.00 0.10 0.00 85 1012.1
20201001120033 46 0.0 0.0 0.00 0.10 0.00 85 1012.1
20201001115030 46 0.0 0.0 0.00 0.10 0.00 85 1011.8
20201001114019 46 0.0 0.0 0.00 0.10 0.00 85 1011.7
20201001113034 46 0.0 0.0 0.00 0.10 0.00 85 1011.7
20201001112021 46 0.0 0.0 0.00 0.10 0.00 85 1011.6
20201001111033 46 0.0 0.0 0.00 0.10 0.00 85 1011.3
20201001110031 46 0.0 0.0 0.00 0.10 0.00 84 1011.3
20201001105019 46 0.0 0.0 0.00 0.10 0.00 84 1011.2
20201001104018 46 0.0 0.0 0.00 0.10 0.00 84 1011.1
20201001103029 47 0.0 0.0 0.00 0.10 0.00 84 1011.1
20201001102030 47 0.0 0.0 0.00 0.10 0.00 83 1011.0
20201001101019 47 0.0 0.0 0.00 0.10 0.00 83 1010.7
20201001100023 47 0.0 0.0 0.00 0.10 0.00 82 1010.7
20201001095029 47 0.0 0.0 0.00 0.10 0.00 82 1010.7
20201001094019 47 0.0 1.0 0.00 0.10 0.00 82 1010.6
20201001093017 47 0.0 0.0 0.00 0.10 0.00 83 1010.6
20201001092029 47 0.0 0.0 0.00 0.10 0.00 83 1010.7
20201001091018 47 0.0 0.0 0.00 0.10 0.00 83 1010.6
20201001090024 47 0.0 0.0 0.00 0.10 0.00 83 1010.6
20201001085018 47 0.0 1.0 0.00 0.10 0.00 82 1010.5
20201001083027 48 0.0 0.0 0.00 0.10 0.00 81 1010.5
20201001082028 48 0.0 1.0 0.00 0.10 0.00 80 1010.4
20201001081019 48 0.0 0.0 0.00 0.10 0.00 80 1010.3
20201001080019 48 0.0 1.0 0.00 0.10 0.00 80 1010.3
20201001075029 48 0.0 0.0 0.00 0.10 0.00 80 1010.2
20201001074021 48 0.0 0.0 0.00 0.10 0.00 80 1010.0
20201001073028 48 0.0 2.0 0.00 0.10 0.00 79 1010.0
20201001072030 49 0.0 0.0 0.00 0.10 0.00 79 1010.0
20201001071029 49 0.0 0.0 0.00 0.10 0.00 80 1010.0
20201001070023 49 0.0 0.0 0.00 0.10 0.00 80 1009.9
20201001065029 49 0.0 0.0 0.00 0.10 0.00 80 1010.0
20201001064029 49 0.0 0.0 0.00 0.10 0.00 80 1010.0
20201001063022 49 0.0 0.0 0.00 0.10 0.00 80 1010.0
20201001062019 49 0.0 3.0 0.00 0.10 0.00 81 1010.0
20201001061029 49 0.0 0.0 0.00 0.10 0.00 81 1010.0
20201001060035 49 0.0 0.0 0.00 0.10 0.00 81 1010.0
20201001055022 49 0.0 0.0 0.00 0.10 0.00 81 1010.0
20201001054030 49 0.0 1.0 0.00 0.10 0.00 81 1010.2
20201001053028 49 0.0 0.0 0.00 0.10 0.00 82 1010.2
20201001052031 49 0.0 0.0 0.00 0.10 0.00 82 1010.0
20201001051032 49 0.0 0.0 0.00 0.10 0.00 82 1010.1
20201001050030 49 0.0 0.0 0.00 0.10 0.10 82 1010.1
20201001045021 49 0.0 0.0 0.00 0.10 0.10 82 1010.1
20201001044030 49 0.0 0.0 0.00 0.10 0.10 82 1010.1
20201001043019 49 0.0 0.0 0.00 0.10 0.10 82 1010.1
20201001042030 49 0.0 1.0 0.00 0.10 0.10 82 1010.1
20201001041020 49 0.0 0.0 0.00 0.10 0.10 83 1010.1
20201001040032 50 0.0 0.0 0.00 0.10 0.10 83 1010.1
20201001035024 50 0.0 1.0 0.00 0.10 0.10 83 1010.0
20201001034030 50 0.0 1.0 0.00 0.10 0.10 83 1009.9
20201001033018 50 0.0 1.0 0.00 0.10 0.10 83 1009.9
20201001032029 50 0.0 1.0 0.00 0.10 0.10 83 1009.7
20201001031029 50 0.0 1.0 0.00 0.10 0.10 83 1009.6
20201001030021 50 0.0 1.0 0.00 0.10 0.10 83 1009.6
20201001025018 50 0.0 0.0 0.00 0.10 0.10 83 1009.6
20201001024030 50 0.0 0.0 0.00 0.10 0.10 82 1009.5
20201001023018 50 0.0 0.0 0.00 0.10 0.10 82 1009.5
20201001022032 51 0.0 1.0 0.00 0.10 0.10 81 1009.5
20201001021029 51 0.0 0.0 0.00 0.10 0.10 80 1009.5
20201001020030 51 0.0 0.0 0.00 0.10 0.10 80 1009.5
20201001015019 52 0.0 0.0 0.00 0.10 0.10 79 1009.3
20201001014029 52 0.0 0.0 0.00 0.10 0.10 78 1009.1
20201001013023 52 0.0 0.0 0.00 0.10 0.10 78 1009.0
20201001012017 52 0.0 0.0 0.00 0.10 0.10 77 1009.0
20201001011029 53 0.0 1.0 0.00 0.10 0.10 77 1008.9
20201001010035 53 0.0 1.0 0.00 0.10 0.10 76 1008.9
20201001005028 53 0.0 0.0 0.00 0.10 0.10 75 1008.8
20201001004033 53 0.0 0.0 0.00 0.10 0.10 74 1008.5
20201001003036 54 0.0 1.0 0.00 0.10 0.10 73 1008.6
20201001002029 54 0.0 0.0 0.00 0.10 0.10 72 1008.4
20201001001029 55 0.0 0.0 0.00 0.10 0.10 71 1008.1
20201001000034 55 0.0 1.0 0.00 0.10 0.10 70 1008.1
20200930235032 55 0.0 2.0 0.00 0.10 0.10 69 1007.6
20200930234033 56 0.0 3.0 0.00 0.10 0.10 69 1007.4
20200930233038 56 0.0 2.0 0.00 0.10 0.10 68 1007.5
20200930232019 56 270 1.0 6.0 0.00 0.10 0.10 69 1007.5
20200930231031 56 0.0 4.0 0.00 0.10 0.10 71 1007.2
20200930230048 57 0.0 1.0 0.00 0.10 0.10 70 1007.2